WXM80 ListenWXM80 Stop

You find our weather info also at:

UK Metoffice

WeatherCloud

Weather Underground

Northeastern Weather Network

AWEKAS

Citizen Weather Observer Program (CWOP)

HAMweather, WeatherForYou, PWS Weather


Weather Underground History page Text

Daily Summary for January 2, 2017 Units:  Metric    English   Both
« Previous Day
Next Day »
Daily Weekly Monthly Yearly Custom
  High: Low: Average:
Temperature: 4.6 °C -0.2 °C 2.9 °C
Dew Point: 3.8 °C -2.8 °C 1.2 °C
Humidity: 97 % 76 % 88 %
Wind Speed: 21.6 km/h 0 km/h 8.4 km/h
Wind Gust: 46.7 km/h - -
Wind:- - East
Pressure: 1032.7 hPa 1023.9 hPa -
Precipitation: 3.05 mm    
Historical Graphs
 
 
Tabular Data for January 2, 2017
Time Temperature Dew Point Pressure Wind Wind Speed Wind Gust Humidity Rainfall Rate (Hourly)
00:00 -0.2 °C -2.6 °C 1030 hPa West 0.3 km/h 46.7 km/h 84 % 0 mm
00:05 -0.2 °C -2.6 °C 1030 hPa Calm   46.7 km/h 84 % 0 mm
00:10 -0.1 °C -2.5 °C 1030 hPa West 0.5 km/h 46.7 km/h 84 % 0 mm
00:15 0 °C -2.6 °C 1030 hPa West 1.1 km/h 46.7 km/h 83 % 0 mm
00:20 0.1 °C -2.5 °C 1030 hPa Calm   46.7 km/h 83 % 0 mm
00:25 0.1 °C -2.4 °C 1030 hPa NE 3.4 km/h 46.7 km/h 83 % 0 mm
00:30 0.2 °C -2.6 °C 1030 hPa NE 2.3 km/h 46.7 km/h 82 % 0 mm
00:35 0.2 °C -2.7 °C 1030 hPa Calm   46.7 km/h 81 % 0 mm
00:40 0.2 °C -2.7 °C 1030 hPa NE 0.5 km/h 46.7 km/h 81 % 0 mm
00:45 0.2 °C -2.7 °C 1029.7 hPa Calm   46.7 km/h 81 % 0 mm
00:50 0.2 °C -2.7 °C 1029.7 hPa NE 0.3 km/h 46.7 km/h 81 % 0 mm
00:55 0.2 °C -2.7 °C 1029.7 hPa Calm   46.7 km/h 81 % 0 mm
01:01 0.2 °C -2.7 °C 1029.7 hPa Calm   46.7 km/h 81 % 0 mm
01:06 0.1 °C -2.8 °C 1029.7 hPa Calm   46.7 km/h 81 % 0 mm
01:08 0.1 °C -2.8 °C 1029.7 hPa Calm   46.7 km/h 81 % 0 mm
01:13 0.1 °C -2.8 °C 1030 hPa NE 1.4 km/h 46.7 km/h 81 % 0 mm
01:18 0 °C -2.7 °C 1029.7 hPa NE 1.3 km/h 46.7 km/h 82 % 0 mm
01:23 -0.1 °C -2.8 °C 1029.7 hPa Calm   46.7 km/h 82 % 0 mm
01:28 -0.1 °C -2.6 °C 1029.7 hPa NE 0.3 km/h 46.7 km/h 83 % 0 mm
01:33 -0.1 °C -2.6 °C 1029.7 hPa NE 0.6 km/h 46.7 km/h 83 % 0 mm
01:38 0 °C -2.4 °C 1030 hPa NE 2.3 km/h 46.7 km/h 84 % 0 mm
01:43 0 °C -2.2 °C 1030.4 hPa Calm   46.7 km/h 85 % 0 mm
01:48 0.1 °C -2.2 °C 1030.4 hPa ENE 2.7 km/h 46.7 km/h 85 % 0 mm
01:53 0.1 °C -1.9 °C 1030 hPa ENE 2.1 km/h 46.7 km/h 86 % 0 mm
01:58 0.3 °C -1.6 °C 1030 hPa ENE 3.1 km/h 46.7 km/h 87 % 0 mm
02:03 0.5 °C -1.3 °C 1030 hPa East 1.9 km/h 46.7 km/h 88 % 0 mm
02:08 0.7 °C -1.1 °C 1030.4 hPa SE 2.3 km/h 46.7 km/h 88 % 0 mm
02:13 0.8 °C -1 °C 1030.4 hPa Calm   46.7 km/h 88 % 0 mm
02:18 0.8 °C -0.9 °C 1030.4 hPa SE 0.3 km/h 46.7 km/h 88 % 0 mm
02:23 0.9 °C -0.8 °C 1030.7 hPa SE 1.6 km/h 46.7 km/h 88 % 0 mm
02:24 0.9 °C -0.8 °C 1030.7 hPa SE 1.6 km/h 46.7 km/h 88 % 0 mm
02:29 1 °C -0.8 °C 1031 hPa SE 2.3 km/h 46.7 km/h 88 % 0 mm
02:34 1.1 °C -0.8 °C 1031 hPa SSE 1.8 km/h 46.7 km/h 87 % 0 mm
02:39 1.2 °C -0.9 °C 1031 hPa SSE 1.6 km/h 46.7 km/h 86 % 0 mm
02:44 1.3 °C -0.9 °C 1030.7 hPa SSE 0.3 km/h 46.7 km/h 85 % 0 mm
02:49 1.3 °C -1.1 °C 1030.7 hPa SSE 2.1 km/h 46.7 km/h 84 % 0 mm
02:54 1.4 °C -1.2 °C 1030.7 hPa SE 2.3 km/h 46.7 km/h 83 % 0 mm
02:59 1.5 °C -1.2 °C 1030.7 hPa SSE 1.6 km/h 46.7 km/h 82 % 0 mm
03:04 1.6 °C -1.2 °C 1030.7 hPa SSE 1.6 km/h 3.2 km/h 82 % 0 mm
03:09 1.6 °C -1.3 °C 1030.4 hPa Calm   3.2 km/h 81 % 0 mm
03:14 1.6 °C -1.3 °C 1030.4 hPa Calm   3.2 km/h 81 % 0 mm
03:19 1.6 °C -1.3 °C 1030.4 hPa Calm   1.6 km/h 81 % 0 mm
03:24 1.6 °C -1.3 °C 1030.4 hPa Calm   3.2 km/h 81 % 0 mm
03:29 1.5 °C -1.6 °C 1030.4 hPa Calm   4.8 km/h 80 % 0 mm
03:34 1.4 °C -1.6 °C 1030.4 hPa Calm   46.7 km/h 80 % 0 mm
03:39 1.4 °C -1.7 °C 1030.4 hPa Calm   1.6 km/h 80 % 0 mm
03:44 1.3 °C -1.7 °C 1030.4 hPa Calm     80 % 0 mm
03:49 1.2 °C -1.8 °C 1030.4 hPa Calm   3.2 km/h 80 % 0 mm
03:54 1.2 °C -2.1 °C 1030.7 hPa Calm   3.2 km/h 79 % 0 mm
03:59 1.2 °C -2.1 °C 1030.7 hPa SSE 0.2 km/h 46.7 km/h 79 % 0 mm
04:04 1.2 °C -2.1 °C 1030.7 hPa Calm   3.2 km/h 79 % 0 mm
04:09 1.2 °C -2.1 °C 1030.7 hPa Calm   4.8 km/h 79 % 0 mm
04:14 1.1 °C -2.1 °C 1030.7 hPa SSE 1.6 km/h 3.2 km/h 79 % 0 mm
04:19 1.1 °C -2.1 °C 1030.7 hPa SE 2.3 km/h 46.7 km/h 79 % 0 mm
04:24 1.1 °C -2.1 °C 1030.7 hPa SE 1.3 km/h 46.7 km/h 79 % 0 mm
04:29 1.2 °C -2.2 °C 1030.7 hPa SE 1.4 km/h 46.7 km/h 78 % 0 mm
04:34 1.2 °C -2.2 °C 1031 hPa SSE 2.1 km/h 46.7 km/h 78 % 0 mm
04:39 1.2 °C -2.2 °C 1031 hPa Calm   46.7 km/h 78 % 0 mm
04:45 1.3 °C -2.3 °C 1031.4 hPa SE 3.2 km/h 46.7 km/h 77 % 0 mm
04:50 1.3 °C -2.3 °C 1031.4 hPa SE 0.6 km/h 46.7 km/h 77 % 0 mm
04:55 1.3 °C -2.3 °C 1031.4 hPa SE 1.3 km/h 46.7 km/h 77 % 0 mm
05:00 1.3 °C -2.3 °C 1031.4 hPa Calm   46.7 km/h 77 % 0 mm
05:05 1.3 °C -2.4 °C 1031 hPa ESE 2.6 km/h 46.7 km/h 76 % 0 mm
05:10 1.3 °C -2.5 °C 1031 hPa ESE 2.7 km/h 46.7 km/h 76 % 0 mm
05:15 1.2 °C -2.6 °C 1031 hPa ESE 0.2 km/h 46.7 km/h 76 % 0 mm
05:20 1.2 °C -2.6 °C 1031 hPa ESE 0.2 km/h 46.7 km/h 76 % 0 mm
05:25 1.2 °C -2.4 °C 1031 hPa Calm   46.7 km/h 77 % 0 mm
05:30 1.2 °C -2.4 °C 1031 hPa Calm   46.7 km/h 77 % 0 mm
05:35 1.2 °C -2.4 °C 1031 hPa Calm   46.7 km/h 77 % 0 mm
05:40 1.2 °C -2.4 °C 1031.4 hPa ESE 0.6 km/h 46.7 km/h 77 % 0 mm
05:45 1.2 °C -2.4 °C 1031.4 hPa Calm   46.7 km/h 77 % 0 mm
05:50 1.2 °C -2.2 °C 1031.4 hPa Calm   46.7 km/h 78 % 0 mm
05:55 1.2 °C -2.2 °C 1031 hPa Calm   46.7 km/h 78 % 0 mm
06:00 1.2 °C -2.2 °C 1031 hPa Calm   46.7 km/h 78 % 0 mm
06:06 1.2 °C -2.2 °C 1031.4 hPa ESE 1.6 km/h 46.7 km/h 78 % 0 mm
06:11 1.2 °C -2.2 °C 1031.4 hPa Calm   46.7 km/h 78 % 0 mm
06:16 1.2 °C -2.2 °C 1031.4 hPa Calm   46.7 km/h 78 % 0 mm
06:21 1.3 °C -2.1 °C 1031.7 hPa Calm   46.7 km/h 78 % 0 mm
06:26 1.3 °C -2.1 °C 1031.7 hPa Calm   46.7 km/h 78 % 0 mm
06:31 1.3 °C -2.1 °C 1032.1 hPa Calm   46.7 km/h 78 % 0 mm
06:36 1.3 °C -1.9 °C 1032.1 hPa Calm   46.7 km/h 79 % 0 mm
06:41 1.3 °C -1.9 °C 1031.7 hPa Calm   46.7 km/h 79 % 0 mm
06:46 1.3 °C -1.9 °C 1032.1 hPa Calm   46.7 km/h 79 % 0 mm
06:51 1.3 °C -1.9 °C 1032.1 hPa ESE 0.8 km/h 46.7 km/h 79 % 0 mm
06:56 1.3 °C -1.9 °C 1031.7 hPa ESE 0.8 km/h 46.7 km/h 79 % 0 mm
07:01 1.3 °C -1.7 °C 1031.7 hPa ESE 0.3 km/h 46.7 km/h 80 % 0 mm
07:06 1.3 °C -1.8 °C 1031.7 hPa ESE 3.2 km/h 46.7 km/h 80 % 0 mm
07:11 1.3 °C -1.8 °C 1031.7 hPa ESE 0.5 km/h 46.7 km/h 80 % 0 mm
07:16 1.2 °C -1.7 °C 1031.7 hPa East 2.1 km/h 46.7 km/h 81 % 0 mm
07:22 1.3 °C -1.4 °C 1031.7 hPa East 1.8 km/h 46.7 km/h 82 % 0 mm
07:27 1.3 °C -1.2 °C 1031.7 hPa East 4.2 km/h 46.7 km/h 83 % 0 mm
07:32 1.5 °C -0.9 °C 1031.4 hPa ENE 6.6 km/h 46.7 km/h 84 % 0 mm
07:37 1.8 °C -0.6 °C 1031.4 hPa ENE 10.1 km/h 46.7 km/h 84 % 0 mm
07:42 2.2 °C -0.4 °C 1031.4 hPa NE 10.1 km/h 46.7 km/h 83 % 0 mm
07:47 2.5 °C -0.3 °C 1031.4 hPa East 10.3 km/h 46.7 km/h 82 % 0 mm
07:52 2.8 °C -0.2 °C 1031.4 hPa East 10 km/h 46.7 km/h 81 % 0 mm
07:57 2.9 °C 0 °C 1031.4 hPa East 8.5 km/h 46.7 km/h 81 % 0 mm
08:02 3.1 °C 0.2 °C 1031.4 hPa East 6.1 km/h 46.7 km/h 81 % 0 mm
08:07 3.2 °C 0.1 °C 1031.7 hPa ESE 4 km/h 46.7 km/h 80 % 0 mm
08:12 3.2 °C 0.1 °C 1031.7 hPa SE 2.4 km/h 46.7 km/h 80 % 0 mm
08:17 3.3 °C 0 °C 1031.7 hPa East 1.6 km/h 46.7 km/h 79 % 0 mm
08:22 3.3 °C 0.2 °C 1032.1 hPa East 2.3 km/h 46.7 km/h 80 % 0 mm
08:27 3.3 °C 0.2 °C 1032.1 hPa East 1.1 km/h 46.7 km/h 80 % 0 mm
08:32 3.4 °C 0.4 °C 1032.1 hPa East 3.5 km/h 46.7 km/h 81 % 0 mm
08:38 3.4 °C 0.3 °C 1032.1 hPa East 0.5 km/h 46.7 km/h 80 % 0 mm
08:43 3.4 °C 0.4 °C 1031.7 hPa East 4.5 km/h 46.7 km/h 81 % 0 mm
08:48 3.4 °C 0.4 °C 1031.7 hPa East 4.2 km/h 46.7 km/h 81 % 0 mm
08:53 3.4 °C 0.6 °C 1031.7 hPa East 2.6 km/h 46.7 km/h 82 % 0 mm
08:58 3.4 °C 0.6 °C 1032.1 hPa East 2.1 km/h 46.7 km/h 82 % 0 mm
09:03 3.4 °C 0.8 °C 1031.7 hPa East 3.9 km/h 46.7 km/h 83 % 0 mm
09:08 3.4 °C 0.8 °C 1031.7 hPa East 2.9 km/h 46.7 km/h 83 % 0 mm
09:13 3.4 °C 0.8 °C 1032.1 hPa East 0.6 km/h 46.7 km/h 83 % 0 mm
09:18 3.4 °C 1 °C 1032.1 hPa ENE 3.7 km/h 46.7 km/h 84 % 0 mm
09:23 3.6 °C 1.3 °C 1032.1 hPa ENE 4.7 km/h 46.7 km/h 85 % 0 mm
09:28 3.7 °C 1.6 °C 1032.4 hPa ENE 8.5 km/h 46.7 km/h 86 % 0 mm
09:33 3.9 °C 1.8 °C 1032.4 hPa NNE 7.7 km/h 46.7 km/h 86 % 0 mm
09:38 4.1 °C 2.2 °C 1032.7 hPa ENE 5.6 km/h 46.7 km/h 88 % 0 mm
09:43 4.2 °C 2.3 °C 1032.7 hPa ENE 6 km/h 46.7 km/h 88 % 0 mm
09:48 4.2 °C 2.4 °C 1032.7 hPa NE 2.9 km/h 46.7 km/h 88 % 0 mm
09:53 4.2 °C 2.4 °C 1032.7 hPa ENE 8.7 km/h 46.7 km/h 88 % 0 mm
09:58 4.2 °C 2.3 °C 1032.7 hPa NE 8.4 km/h 46.7 km/h 88 % 0 mm
10:03 4.1 °C 2.2 °C 1032.7 hPa ENE 7.1 km/h 46.7 km/h 87 % 0 mm
10:08 4.1 °C 2.2 °C 1032.7 hPa ENE 5.6 km/h 46.7 km/h 87 % 0 mm
10:14 4.1 °C 2.2 °C 1032.7 hPa ENE 9 km/h 46.7 km/h 87 % 0 mm
10:19 4.1 °C 2.2 °C 1032.7 hPa ENE 9 km/h 46.7 km/h 87 % 0 mm
10:24 4.2 °C 2.2 °C 1032.7 hPa NE 6 km/h 46.7 km/h 87 % 0 mm
10:29 4.2 °C 2.2 °C 1032.4 hPa ENE 6.3 km/h 46.7 km/h 87 % 0 mm
10:34 4.2 °C 2.2 °C 1032.7 hPa ENE 7.4 km/h 46.7 km/h 87 % 0 mm
10:39 4.2 °C 2.2 °C 1032.7 hPa NE 6.8 km/h 46.7 km/h 87 % 0 mm
10:44 4.2 °C 2.2 °C 1032.7 hPa ENE 5 km/h 46.7 km/h 87 % 0 mm
10:49 4.2 °C 2.2 °C 1032.4 hPa ENE 6 km/h 46.7 km/h 87 % 0 mm
10:54 4.2 °C 2.2 °C 1032.4 hPa ENE 6 km/h 46.7 km/h 87 % 0 mm
10:59 4.3 °C 2.4 °C 1032.4 hPa NE 8.2 km/h 46.7 km/h 88 % 0 mm
11:04 4.3 °C 2.4 °C 1032.4 hPa ENE 8 km/h 14.5 km/h 88 % 0 mm
11:09 4.2 °C 2.4 °C 1032.1 hPa ENE 8 km/h 12.9 km/h 88 % 0 mm
11:14 4.2 °C 2.4 °C 1032.1 hPa ENE 4.8 km/h 12.9 km/h 88 % 0 mm
11:19 4.3 °C 2.7 °C 1032.1 hPa ENE 9.7 km/h 14.5 km/h 89 % 0 mm
11:24 4.3 °C 2.5 °C 1032.1 hPa NE 9.7 km/h 16.1 km/h 88 % 0 mm
11:29 4.3 °C 2.5 °C 1031.7 hPa ENE 8 km/h 16.1 km/h 88 % 0 mm
11:34 4.2 °C 2.3 °C 1031.7 hPa NE 9 km/h 46.7 km/h 88 % 0 mm
11:39 4.1 °C 2.1 °C 1031.7 hPa ENE 9.7 km/h 46.7 km/h 87 % 0 mm
11:44 4 °C 2.1 °C 1031.4 hPa ENE 14.5 km/h 22.5 km/h 87 % 0 mm
11:49 3.9 °C 2.1 °C 1031 hPa ENE 9.7 km/h 19.3 km/h 88 % 0 mm
11:54 3.9 °C 2.1 °C 1031 hPa ENE 11.3 km/h 19.3 km/h 88 % 0 mm
11:59 3.8 °C 2 °C 1031 hPa ENE 10.5 km/h 46.7 km/h 88 % 0 mm
12:04 3.7 °C 1.9 °C 1030.7 hPa ENE 11.3 km/h 19.3 km/h 88 % 0 mm
12:09 3.7 °C 2.1 °C 1030.4 hPa ENE 11.3 km/h 16.1 km/h 89 % 0 mm
12:14 3.8 °C 2.3 °C 1030.4 hPa ENE 9.7 km/h 19.3 km/h 90 % 0 mm
12:19 3.8 °C 2.3 °C 1030.4 hPa ENE 9.7 km/h 19.3 km/h 90 % 0 mm
12:24 3.9 °C 2.4 °C 1030 hPa ENE 12.9 km/h 20.9 km/h 90 % 0 mm
12:29 3.9 °C 2.4 °C 1030 hPa ENE 11.4 km/h 46.7 km/h 90 % 0 mm
12:34 4.1 °C 2.7 °C 1030 hPa East 11.3 km/h 16.1 km/h 91 % 0 mm
12:39 4.1 °C 2.7 °C 1030 hPa ENE 11.3 km/h 19.3 km/h 91 % 0 mm
12:44 4.1 °C 2.8 °C 1030 hPa ENE 11.3 km/h 16.1 km/h 91 % 0 mm
12:49 4.2 °C 2.8 °C 1030 hPa East 11.3 km/h 19.3 km/h 91 % 0 mm
12:54 4.3 °C 2.9 °C 1030 hPa East 10.3 km/h 46.7 km/h 91 % 0 mm
12:59 4.3 °C 2.9 °C 1029.7 hPa East 11.6 km/h 46.7 km/h 91 % 0 mm
13:04 4.3 °C 3 °C 1029.7 hPa East 9.7 km/h 46.7 km/h 91 % 0 mm
13:09 4.4 °C 3.1 °C 1029.7 hPa ENE 10.1 km/h 46.7 km/h 91 % 0 mm
13:14 4.4 °C 3.1 °C 1029.7 hPa ENE 8.2 km/h 46.7 km/h 91 % 0 mm
13:19 4.4 °C 3.1 °C 1029.7 hPa East 10.9 km/h 46.7 km/h 91 % 0 mm
13:24 4.4 °C 3.1 °C 1029.7 hPa East 10.8 km/h 46.7 km/h 91 % 0 mm
13:30 4.5 °C 3.2 °C 1029.7 hPa ENE 9.7 km/h 46.7 km/h 91 % 0 mm
13:35 4.5 °C 3.2 °C 1029.3 hPa ENE 11.9 km/h 46.7 km/h 91 % 0 mm
13:40 4.6 °C 3.2 °C 1029.7 hPa ENE 10.6 km/h 46.7 km/h 91 % 0 mm
13:45 4.6 °C 3.2 °C 1029.7 hPa ENE 10.9 km/h 46.7 km/h 91 % 0 mm
13:50 4.6 °C 3.2 °C 1029.7 hPa East 11.6 km/h 46.7 km/h 91 % 0 mm
13:55 4.6 °C 3.2 °C 1029.7 hPa East 12.4 km/h 46.7 km/h 91 % 0 mm
14:00 4.6 °C 3.2 °C 1029.3 hPa East 11.4 km/h 46.7 km/h 91 % 0 mm
14:05 4.6 °C 3.2 °C 1029.3 hPa East 11.4 km/h 46.7 km/h 91 % 0 mm
14:10 4.6 °C 3.4 °C 1029.3 hPa East 11.1 km/h 46.7 km/h 92 % 0 mm
14:15 4.6 °C 3.4 °C 1029.3 hPa East 7.7 km/h 46.7 km/h 92 % 0 mm
14:20 4.6 °C 3.4 °C 1029.3 hPa ENE 9.3 km/h 46.7 km/h 92 % 0 mm
14:25 4.6 °C 3.4 °C 1029 hPa East 10.1 km/h 46.7 km/h 92 % 0 mm
14:30 4.5 °C 3.3 °C 1029 hPa ENE 12.2 km/h 46.7 km/h 92 % 0.25 mm
14:35 4.5 °C 3.3 °C 1029 hPa ENE 9.5 km/h 46.7 km/h 92 % 0.25 mm
14:40 4.4 °C 3.4 °C 1029 hPa East 12.6 km/h 46.7 km/h 93 % 0.25 mm
14:46 4.4 °C 3.4 °C 1029 hPa ENE 9.3 km/h 46.7 km/h 93 % 0.25 mm
14:51 4.4 °C 3.4 °C 1029 hPa ENE 9.8 km/h 46.7 km/h 93 % 0.25 mm
14:56 4.4 °C 3.4 °C 1029 hPa East 11.6 km/h 46.7 km/h 93 % 0.25 mm
15:01 4.4 °C 3.4 °C 1029 hPa East 10 km/h 46.7 km/h 93 % 0.25 mm
15:06 4.4 °C 3.4 °C 1029 hPa ENE 11.7 km/h 46.7 km/h 93 % 0.51 mm
15:11 4.4 °C 3.3 °C 1029 hPa NE 14.3 km/h 46.7 km/h 93 % 0.51 mm
15:16 4.3 °C 3.3 °C 1029 hPa East 15 km/h 46.7 km/h 93 % 0.51 mm
15:21 4.3 °C 3.2 °C 1029 hPa ENE 12.7 km/h 46.7 km/h 93 % 0.76 mm
15:26 4.2 °C 3.1 °C 1029 hPa ENE 13.5 km/h 46.7 km/h 93 % 0.76 mm
15:31 4.1 °C 3 °C 1028.7 hPa NNE 14.8 km/h 46.7 km/h 93 % 0.51 mm
15:36 4.1 °C 3 °C 1029 hPa East 10.3 km/h 46.7 km/h 93 % 0.76 mm
15:41 3.9 °C 2.9 °C 1029 hPa ENE 15.4 km/h 46.7 km/h 93 % 0.76 mm
15:46 3.9 °C 2.8 °C 1029 hPa ENE 13.4 km/h 46.7 km/h 93 % 0.76 mm
15:51 3.9 °C 3 °C 1028.7 hPa ENE 15.4 km/h 46.7 km/h 94 % 0.76 mm
15:56 3.9 °C 3 °C 1028.7 hPa East 18.3 km/h 46.7 km/h 94 % 0.76 mm
16:01 3.8 °C 2.9 °C 1028.7 hPa ENE 15.9 km/h 46.7 km/h 94 % 0.51 mm
16:07 3.8 °C 2.8 °C 1029 hPa ENE 16.7 km/h 46.7 km/h 93 % 0.76 mm
16:12 3.8 °C 2.9 °C 1028.7 hPa East 14.2 km/h 46.7 km/h 94 % 0.76 mm
16:17 3.8 °C 2.9 °C 1029 hPa ENE 17.7 km/h 46.7 km/h 94 % 0.76 mm
16:22 3.8 °C 2.9 °C 1028.7 hPa NE 13.5 km/h 46.7 km/h 94 % 0.51 mm
16:27 3.8 °C 2.9 °C 1028.7 hPa ENE 15.8 km/h 46.7 km/h 94 % 0.51 mm
16:32 3.8 °C 2.9 °C 1028.3 hPa ENE 16.1 km/h 46.7 km/h 94 % 0.51 mm
16:37 3.8 °C 2.9 °C 1028.3 hPa NNE 11.1 km/h 46.7 km/h 94 % 0.25 mm
16:42 3.8 °C 2.9 °C 1028.3 hPa ENE 14.3 km/h 46.7 km/h 94 % 0.25 mm
16:47 3.8 °C 2.9 °C 1028.3 hPa ENE 12.2 km/h 46.7 km/h 94 % 0.25 mm
16:52 3.8 °C 2.9 °C 1028.3 hPa ENE 13.7 km/h 46.7 km/h 94 % 0.25 mm
16:57 3.8 °C 3.1 °C 1028.3 hPa ENE 13 km/h 46.7 km/h 95 % 0.25 mm
17:02 3.8 °C 2.9 °C 1028.3 hPa ENE 13.2 km/h 46.7 km/h 94 % 0.25 mm
17:08 3.8 °C 3.1 °C 1028.3 hPa ENE 12.6 km/h 46.7 km/h 95 % 0 mm
17:13 3.8 °C 3.1 °C 1028.3 hPa NE 16.4 km/h 46.7 km/h 95 % 0 mm
17:18 3.8 °C 3.1 °C 1028 hPa ENE 15.1 km/h 46.7 km/h 95 % 0 mm
17:23 3.8 °C 3.1 °C 1027.7 hPa ENE 14 km/h 46.7 km/h 95 % 0 mm
17:28 3.8 °C 3.1 °C 1028 hPa NE 11.4 km/h 46.7 km/h 95 % 0 mm
17:33 3.8 °C 3.1 °C 1028 hPa ENE 17.4 km/h 46.7 km/h 95 % 0 mm
17:38 3.8 °C 3.1 °C 1028 hPa ENE 15.8 km/h 46.7 km/h 95 % 0 mm
17:43 3.8 °C 3.1 °C 1028 hPa ENE 13.4 km/h 46.7 km/h 95 % 0 mm
17:48 3.8 °C 3.1 °C 1028 hPa ENE 13.7 km/h 46.7 km/h 95 % 0 mm
17:53 3.8 °C 3.1 °C 1028 hPa ENE 16.6 km/h 46.7 km/h 95 % 0 mm
17:58 3.8 °C 3.1 °C 1027.7 hPa ENE 16.9 km/h 46.7 km/h 95 % 0.25 mm
18:01 3.8 °C 3.1 °C 1027.7 hPa ENE 13.2 km/h 46.7 km/h 95 % 0.25 mm
18:06 3.8 °C 3.1 °C 1027.7 hPa ENE 13 km/h 46.7 km/h 95 % 0.25 mm
18:11 3.8 °C 3.2 °C 1027.7 hPa NE 15.9 km/h 46.7 km/h 96 % 0.25 mm
18:16 3.8 °C 3.3 °C 1027.7 hPa ENE 12.9 km/h 46.7 km/h 96 % 0.51 mm
18:21 3.8 °C 3.3 °C 1027.7 hPa ENE 11.4 km/h 46.7 km/h 96 % 0.51 mm
18:26 3.8 °C 3.3 °C 1027.7 hPa ENE 13.5 km/h 46.7 km/h 96 % 0.51 mm
18:31 3.8 °C 3.3 °C 1028 hPa ENE 11.9 km/h 46.7 km/h 96 % 0.51 mm
18:36 3.8 °C 3.3 °C 1028 hPa ENE 13.4 km/h 46.7 km/h 96 % 0.76 mm
18:41 3.8 °C 3.3 °C 1027.7 hPa ENE 12.2 km/h 46.7 km/h 96 % 0.76 mm
18:46 3.8 °C 3.3 °C 1027.7 hPa East 11.9 km/h 46.7 km/h 96 % 0.76 mm
18:51 3.9 °C 3.3 °C 1027.7 hPa East 13.5 km/h 46.7 km/h 96 % 0.76 mm
18:57 3.9 °C 3.3 °C 1027.7 hPa ENE 16.4 km/h 46.7 km/h 96 % 1.02 mm
19:02 3.9 °C 3.4 °C 1027.7 hPa ENE 12.4 km/h 46.7 km/h 96 % 0.76 mm
19:07 3.9 °C 3.4 °C 1027.7 hPa ENE 12.4 km/h 46.7 km/h 96 % 0.76 mm
19:12 4 °C 3.4 °C 1027.7 hPa East 11.1 km/h 46.7 km/h 96 % 0.76 mm
19:17 4.1 °C 3.7 °C 1027.7 hPa East 13.2 km/h 46.7 km/h 97 % 0.76 mm
19:22 4.1 °C 3.6 °C 1027.7 hPa ENE 13.8 km/h 46.7 km/h 96 % 0.76 mm
19:27 4.1 °C 3.7 °C 1027.3 hPa NE 15.8 km/h 46.7 km/h 97 % 0.76 mm
19:32 4.2 °C 3.7 °C 1027.3 hPa ENE 14.3 km/h 46.7 km/h 97 % 0.76 mm
19:37 4.2 °C 3.8 °C 1027.3 hPa ENE 14.5 km/h 46.7 km/h 97 % 0.51 mm
19:42 4.3 °C 3.8 °C 1027.3 hPa ENE 16.4 km/h 46.7 km/h 97 % 0.51 mm
19:47 4.2 °C 3.8 °C 1027.3 hPa ENE 19.6 km/h 46.7 km/h 97 % 0.51 mm
19:52 4.1 °C 3.7 °C 1027.3 hPa ENE 16.4 km/h 46.7 km/h 97 % 0.51 mm
19:57 4.1 °C 3.6 °C 1027.3 hPa ENE 16.3 km/h 46.7 km/h 97 % 0.25 mm
20:03 4 °C 3.4 °C 1027.3 hPa NE 15.4 km/h 46.7 km/h 96 % 0.25 mm
20:08 3.9 °C 3.4 °C 1027.3 hPa NE 15.8 km/h 46.7 km/h 96 % 0.25 mm
20:13 3.8 °C 3.2 °C 1027.3 hPa ENE 14.6 km/h 46.7 km/h 96 % 0.25 mm
20:18 3.6 °C 3.1 °C 1027 hPa ENE 15.9 km/h 46.7 km/h 96 % 0 mm
20:23 3.6 °C 3 °C 1026.6 hPa ENE 12.1 km/h 46.7 km/h 96 % 0 mm
20:28 3.4 °C 2.9 °C 1026.6 hPa ENE 14.8 km/h 46.7 km/h 96 % 0 mm
20:33 3.4 °C 2.9 °C 1027 hPa ENE 15.1 km/h 46.7 km/h 96 % 0 mm
20:38 3.4 °C 2.9 °C 1026.6 hPa ENE 12.9 km/h 46.7 km/h 96 % 0 mm
20:43 3.4 °C 3 °C 1026.3 hPa ENE 15.4 km/h 46.7 km/h 97 % 0 mm
20:48 3.4 °C 3 °C 1026.3 hPa ENE 16.6 km/h 46.7 km/h 97 % 0 mm
20:53 3.4 °C 3 °C 1026.3 hPa ENE 17.1 km/h 46.7 km/h 97 % 0 mm
20:58 3.5 °C 3.1 °C 1026 hPa ENE 17.2 km/h 46.7 km/h 97 % 0 mm
21:03 3.5 °C 3.1 °C 1026 hPa ENE 17.7 km/h 46.7 km/h 97 % 0 mm
21:08 3.6 °C 3.1 °C 1025.6 hPa ENE 17.9 km/h 46.7 km/h 97 % 0 mm
21:13 3.6 °C 3.1 °C 1025.6 hPa ENE 16.6 km/h 46.7 km/h 97 % 0 mm
21:18 3.6 °C 3.2 °C 1025.6 hPa ENE 15.4 km/h 46.7 km/h 97 % 0 mm
21:23 3.6 °C 3.2 °C 1025.6 hPa ENE 18.3 km/h 46.7 km/h 97 % 0 mm
21:29 3.6 °C 3.2 °C 1025.6 hPa ENE 16.9 km/h 46.7 km/h 97 % 0 mm
21:34 3.7 °C 3.2 °C 1025.3 hPa ENE 15.6 km/h 46.7 km/h 97 % 0 mm
21:39 3.7 °C 3.3 °C 1025.3 hPa ENE 14.8 km/h 46.7 km/h 97 % 0 mm
21:44 3.7 °C 3.3 °C 1024.9 hPa NE 18.7 km/h 46.7 km/h 97 % 0 mm
21:49 3.7 °C 3.3 °C 1024.9 hPa East 18.2 km/h 46.7 km/h 97 % 0 mm
21:54 3.7 °C 3.1 °C 1024.9 hPa ENE 21.6 km/h 46.7 km/h 96 % 0 mm
21:59 3.6 °C 3.1 °C 1024.9 hPa ENE 17.4 km/h 46.7 km/h 96 % 0 mm
22:04 3.6 °C 3 °C 1024.9 hPa ENE 15.1 km/h 46.7 km/h 96 % 0 mm
22:09 3.6 °C 3.1 °C 1025.3 hPa ENE 15.3 km/h 46.7 km/h 97 % 0 mm
22:14 3.6 °C 3.1 °C 1025.3 hPa ENE 18.2 km/h 46.7 km/h 97 % 0.25 mm
22:19 3.6 °C 3.1 °C 1025.3 hPa ENE 15.3 km/h 46.7 km/h 97 % 0.25 mm
22:24 3.6 °C 3.1 °C 1025.3 hPa ENE 16.7 km/h 46.7 km/h 97 % 0.25 mm
22:30 3.6 °C 3.2 °C 1024.9 hPa ENE 19.3 km/h 46.7 km/h 97 % 0.25 mm
22:35 3.6 °C 3.2 °C 1024.6 hPa ENE 17.5 km/h 46.7 km/h 97 % 0.25 mm
22:40 3.7 °C 3.2 °C 1024.9 hPa ENE 16.1 km/h 46.7 km/h 97 % 0.25 mm
22:50 3.7 °C 3.2 °C 1024.9 hPa ENE 16.9 km/h 46.7 km/h 97 % 0.25 mm
22:55 3.7 °C 3.2 °C 1024.9 hPa NE 15.6 km/h 46.7 km/h 97 % 0.25 mm
23:00 3.7 °C 3.2 °C 1024.9 hPa ENE 18 km/h 46.7 km/h 97 % 0.25 mm
23:05 3.7 °C 3.3 °C 1024.9 hPa ENE 16.4 km/h 46.7 km/h 97 % 0.25 mm
23:10 3.7 °C 3.3 °C 1024.9 hPa NE 14 km/h 46.7 km/h 97 % 0.25 mm
23:20 3.7 °C 3.3 °C 1024.6 hPa ENE 13.8 km/h 46.7 km/h 97 % 0.25 mm
23:25 3.7 °C 3.3 °C 1024.6 hPa ENE 16.4 km/h 46.7 km/h 97 % 0.25 mm
23:30 3.7 °C 3.3 °C 1024.3 hPa East 15.1 km/h 46.7 km/h 97 % 0.25 mm
23:31 3.7 °C 3.3 °C 1024.3 hPa ENE 15 km/h 46.7 km/h 97 % 0.25 mm
23:36 3.7 °C 3.3 °C 1024.3 hPa ENE 16.3 km/h 46.7 km/h 97 % 0.25 mm
23:41 3.7 °C 3.3 °C 1024.3 hPa NE 16.4 km/h 46.7 km/h 97 % 0.25 mm
23:46 3.7 °C 3.3 °C 1024.3 hPa ENE 15 km/h 46.7 km/h 97 % 0.25 mm
23:51 3.7 °C 3.3 °C 1024.3 hPa ENE 16.4 km/h 46.7 km/h 97 % 0.25 mm
23:56 3.7 °C 3.3 °C 1023.9 hPa NE 16.4 km/h 46.7 km/h 97 % 0.25 mm
Crab Meadow Weather
Compliments of Weather Underground - 3 mb

Script developed by  Jim McMurry - jmcmurry@mwt.net Adapted for the template by  Wim van der Kuil - Leuven-Template.eu

Cloud Base: The cloud base is the distance from the sea level to the base of the clouds. It is estimated using the current temperature and humidity to indicate an altitude where the air could be cold enough for clouds to form. There may or may not be clouds at that altitude (or at any altitude)